Time,TemperatureF,DewpointF,PressureIn,WindDirection,WindDirectionDegrees,WindSpeedMPH,WindSpeedGustMPH,Humidity,HourlyPrecipIn,Conditions,Clouds,dailyrainin,SoftwareType,DateUTC
2013-03-14 05:57:00,47.6,46.0,30.07,SW,222,1.0,1.0,94,0.00,,,0.00,Wunderground v.1.15,2013-03-14 12:57:00,
2013-03-14 06:03:00,47.7,46.1,30.07,SW,234,1.0,1.0,94,0.00,,,0.00,Wunderground v.1.15,2013-03-14 13:03:00,
2013-03-14 06:13:00,47.8,46.2,30.08,SW,234,0.0,0.0,94,0.00,,,0.00,Wunderground v.1.15,2013-03-14 13:13:00,
2013-03-14 06:19:00,47.8,46.2,30.08,WNW,286,0.0,2.0,94,0.00,,,0.00,Wunderground v.1.15,2013-03-14 13:19:00,
2013-03-14 06:25:00,47.7,46.1,30.08,WNW,286,0.0,0.0,94,0.00,,,0.00,Wunderground v.1.15,2013-03-14 13:25:00,
2013-03-14 06:30:00,47.7,46.1,30.08,WNW,286,0.0,0.0,94,0.00,,,0.00,Wunderground v.1.15,2013-03-14 13:30:00,
2013-03-14 06:36:00,47.6,46.0,30.07,WNW,286,1.0,1.0,94,0.00,,,0.00,Wunderground v.1.15,2013-03-14 13:36:00,
2013-03-14 06:41:00,47.4,45.8,30.07,West,281,1.0,1.0,94,0.00,,,0.00,Wunderground v.1.15,2013-03-14 13:41:00,
2013-03-14 06:46:00,47.4,45.8,30.08,West,281,0.0,0.0,94,0.00,,,0.00,Wunderground v.1.15,2013-03-14 13:46:00,
2013-03-14 06:52:00,47.3,45.7,30.08,West,281,0.0,0.0,94,0.00,,,0.00,Wunderground v.1.15,2013-03-14 13:52:00,
2013-03-14 06:58:00,47.3,45.7,30.07,West,281,0.0,0.0,94,0.00,,,0.00,Wunderground v.1.15,2013-03-14 13:58:00,
2013-03-14 07:03:00,47.2,45.6,30.07,West,281,0.0,4.0,94,0.00,,,0.00,Wunderground v.1.15,2013-03-14 14:03:00,
2013-03-14 07:08:00,47.3,45.7,30.08,West,281,0.0,4.0,94,0.00,,,0.00,Wunderground v.1.15,2013-03-14 14:08:00,
2013-03-14 07:14:00,47.3,45.7,30.08,West,281,0.0,4.0,94,0.00,,,0.00,Wunderground v.1.15,2013-03-14 14:14:00,
2013-03-14 07:20:00,47.3,45.7,30.09,West,281,0.0,4.0,94,0.00,,,0.00,Wunderground v.1.15,2013-03-14 14:20:00,
2013-03-14 07:25:00,47.2,45.6,30.08,West,281,0.0,4.0,94,0.00,,,0.00,Wunderground v.1.15,2013-03-14 14:25:00,
2013-03-14 07:31:00,47.2,45.6,30.08,West,281,1.0,4.0,94,0.00,,,0.00,Wunderground v.1.15,2013-03-14 14:31:00,
2013-03-14 07:36:00,47.2,45.6,30.08,WNW,290,1.0,5.0,94,0.00,,,0.00,Wunderground v.1.15,2013-03-14 14:36:00,
2013-03-14 07:42:00,47.1,45.5,30.08,WNW,290,1.0,4.0,94,0.00,,,0.00,Wunderground v.1.15,2013-03-14 14:42:00,
2013-03-14 07:48:00,47.1,45.5,30.09,WNW,290,1.0,4.0,94,0.00,,,0.00,Wunderground v.1.15,2013-03-14 14:48:00,
2013-03-14 07:53:00,47.0,45.4,30.08,WNW,290,0.0,4.0,94,0.00,,,0.00,Wunderground v.1.15,2013-03-14 14:53:00,
2013-03-14 07:59:00,47.0,45.4,30.09,WNW,290,0.0,4.0,94,0.00,,,0.00,Wunderground v.1.15,2013-03-14 14:59:00,
2013-03-14 08:04:00,47.2,45.6,30.09,WNW,290,0.0,4.0,94,0.00,,,0.00,Wunderground v.1.15,2013-03-14 15:04:00,
2013-03-14 08:09:00,47.2,45.6,30.09,WNW,290,0.0,4.0,94,0.00,,,0.00,Wunderground v.1.15,2013-03-14 15:09:00,
2013-03-14 08:15:00,47.2,45.6,30.08,WNW,290,0.0,4.0,94,0.00,,,0.00,Wunderground v.1.15,2013-03-14 15:15:00,
2013-03-14 08:21:00,47.2,45.6,30.08,WNW,290,0.0,4.0,94,0.00,,,0.00,Wunderground v.1.15,2013-03-14 15:21:00,
2013-03-14 08:27:00,47.3,45.7,30.09,WNW,290,0.0,4.0,94,0.00,,,0.00,Wunderground v.1.15,2013-03-14 15:27:00,
2013-03-14 08:33:00,47.4,45.8,30.09,WNW,290,0.0,4.0,94,0.00,,,0.00,Wunderground v.1.15,2013-03-14 15:33:00,
2013-03-14 08:39:00,47.6,46.0,30.09,WNW,290,0.0,4.0,94,0.00,,,0.00,Wunderground v.1.15,2013-03-14 15:39:00,
2013-03-14 08:44:00,47.7,46.1,30.09,WNW,290,0.0,4.0,94,0.00,,,0.00,Wunderground v.1.15,2013-03-14 15:44:00,
2013-03-14 08:50:00,47.8,46.2,30.09,WNW,290,0.0,4.0,94,0.00,,,0.00,Wunderground v.1.15,2013-03-14 15:50:00,
2013-03-14 08:56:00,48.0,46.4,30.09,WNW,290,0.0,4.0,94,0.00,,,0.00,Wunderground v.1.15,2013-03-14 15:56:00,
2013-03-14 09:01:00,48.1,46.5,30.09,WNW,290,0.0,4.0,94,0.00,,,0.00,Wunderground v.1.15,2013-03-14 16:01:00,
2013-03-14 09:06:00,48.3,46.7,30.09,WNW,290,0.0,4.0,94,0.00,,,0.00,Wunderground v.1.15,2013-03-14 16:06:00,
2013-03-14 09:11:00,48.5,46.9,30.09,WNW,290,0.0,4.0,94,0.00,,,0.00,Wunderground v.1.15,2013-03-14 16:11:00,
2013-03-14 09:17:00,48.6,46.7,30.10,WNW,290,0.0,4.0,93,0.00,,,0.00,Wunderground v.1.15,2013-03-14 16:17:00,
2013-03-14 09:22:00,48.7,46.8,30.10,WNW,290,1.0,4.0,93,0.00,,,0.00,Wunderground v.1.15,2013-03-14 16:22:00,
2013-03-14 09:28:00,48.8,46.9,30.10,WNW,290,1.0,4.0,93,0.00,,,0.00,Wunderground v.1.15,2013-03-14 16:28:00,
2013-03-14 09:33:00,48.8,46.9,30.10,West,274,1.0,5.0,93,0.00,,,0.00,Wunderground v.1.15,2013-03-14 16:33:00,
2013-03-14 09:38:00,48.7,46.5,30.11,NW,310,1.0,5.0,92,0.00,,,0.00,Wunderground v.1.15,2013-03-14 16:38:00,
2013-03-14 09:43:00,48.6,46.4,30.11,NW,313,2.0,4.0,92,0.00,,,0.00,Wunderground v.1.15,2013-03-14 16:43:00,
2013-03-14 09:49:00,48.6,46.4,30.11,NW,306,2.0,4.0,92,0.00,,,0.00,Wunderground v.1.15,2013-03-14 16:49:00,
2013-03-14 09:55:00,48.6,46.4,30.11,West,281,1.0,4.0,92,0.00,,,0.00,Wunderground v.1.15,2013-03-14 16:55:00,
2013-03-14 10:01:00,48.5,46.3,30.10,WNW,288,2.0,4.0,92,0.00,,,0.00,Wunderground v.1.15,2013-03-14 17:01:00,
2013-03-14 10:06:00,48.5,46.3,30.10,SW,229,2.0,4.0,92,0.00,,,0.00,Wunderground v.1.15,2013-03-14 17:06:00,
2013-03-14 10:11:00,48.7,46.5,30.11,WSW,240,2.0,4.0,92,0.00,,,0.00,Wunderground v.1.15,2013-03-14 17:11:00,
2013-03-14 10:17:00,48.9,46.4,30.12,WSW,249,2.0,5.0,91,0.00,,,0.00,Wunderground v.1.15,2013-03-14 17:17:00,
2013-03-14 10:22:00,48.9,46.4,30.12,WNW,301,2.0,4.0,91,0.00,,,0.00,Wunderground v.1.15,2013-03-14 17:22:00,
2013-03-14 10:28:00,49.0,46.5,30.11,SW,223,1.0,4.0,91,0.00,,,0.00,Wunderground v.1.15,2013-03-14 17:28:00,
2013-03-14 10:34:00,49.0,46.2,30.11,WSW,244,1.0,4.0,90,0.00,,,0.00,Wunderground v.1.15,2013-03-14 17:34:00,
2013-03-14 10:39:00,49.0,46.5,30.11,SW,227,1.0,4.0,91,0.00,,,0.00,Wunderground v.1.15,2013-03-14 17:39:00,
2013-03-14 10:45:00,49.2,46.4,30.10,SW,232,1.0,4.0,90,0.00,,,0.00,Wunderground v.1.15,2013-03-14 17:45:00,
2013-03-14 10:51:00,49.4,46.6,30.10,WSW,237,1.0,2.0,90,0.00,,,0.00,Wunderground v.1.15,2013-03-14 17:51:00,
2013-03-14 10:56:00,49.5,46.7,30.10,WNW,293,1.0,4.0,90,0.00,,,0.00,Wunderground v.1.15,2013-03-14 17:56:00,
2013-03-14 11:02:00,49.8,47.0,30.10,WNW,288,1.0,4.0,90,0.00,,,0.00,Wunderground v.1.15,2013-03-14 18:02:00,
2013-03-14 11:07:00,50.0,46.9,30.10,West,280,1.0,4.0,89,0.00,,,0.00,Wunderground v.1.15,2013-03-14 18:07:00,
2013-03-14 11:12:00,50.3,46.9,30.10,West,280,1.0,4.0,88,0.00,,,0.00,Wunderground v.1.15,2013-03-14 18:12:00,
2013-03-14 11:18:00,50.9,47.5,30.10,West,279,0.0,4.0,88,0.00,,,0.00,Wunderground v.1.15,2013-03-14 18:18:00,
2013-03-14 11:24:00,51.4,47.4,30.10,SW,216,1.0,4.0,86,0.00,,,0.00,Wunderground v.1.15,2013-03-14 18:24:00,
2013-03-14 11:29:00,51.7,47.3,30.10,West,261,1.0,4.0,85,0.00,,,0.00,Wunderground v.1.15,2013-03-14 18:29:00,
2013-03-14 11:34:00,51.9,47.5,30.10,West,271,1.0,4.0,85,0.00,,,0.00,Wunderground v.1.15,2013-03-14 18:34:00,
2013-03-14 11:40:00,52.2,47.5,30.10,SW,217,1.0,4.0,84,0.00,,,0.00,Wunderground v.1.15,2013-03-14 18:40:00,
2013-03-14 11:46:00,52.4,47.7,30.10,WNW,293,1.0,4.0,84,0.00,,,0.00,Wunderground v.1.15,2013-03-14 18:46:00,
2013-03-14 11:51:00,52.5,47.5,30.09,WNW,292,1.0,4.0,83,0.00,,,0.00,Wunderground v.1.15,2013-03-14 18:51:00,
2013-03-14 11:57:00,52.7,47.7,30.09,NW,311,1.0,5.0,83,0.00,,,0.00,Wunderground v.1.15,2013-03-14 18:57:00,
2013-03-14 12:03:00,53.1,48.1,30.09,NW,311,1.0,4.0,83,0.00,,,0.00,Wunderground v.1.15,2013-03-14 19:03:00,
2013-03-14 12:08:00,53.5,48.1,30.09,WNW,303,1.0,4.0,82,0.00,,,0.00,Wunderground v.1.15,2013-03-14 19:08:00,
2013-03-14 12:14:00,54.0,48.6,30.10,SW,231,2.0,3.0,82,0.00,,,0.00,Wunderground v.1.15,2013-03-14 19:14:00,
2013-03-14 12:20:00,54.6,48.9,30.10,WNW,300,2.0,5.0,81,0.00,,,0.00,Wunderground v.1.15,2013-03-14 19:20:00,
2013-03-14 12:26:00,54.9,48.8,30.10,WNW,303,2.0,5.0,80,0.00,,,0.00,Wunderground v.1.15,2013-03-14 19:26:00,
2013-03-14 12:32:00,54.6,47.9,30.10,WSW,251,2.0,4.0,78,0.00,,,0.00,Wunderground v.1.15,2013-03-14 19:32:00,
2013-03-14 12:37:00,54.4,48.0,30.10,West,281,1.0,4.0,79,0.00,,,0.00,Wunderground v.1.15,2013-03-14 19:37:00,
2013-03-14 12:43:00,54.3,48.3,30.10,SW,234,2.0,4.0,80,0.00,,,0.00,Wunderground v.1.15,2013-03-14 19:43:00,
2013-03-14 12:48:00,54.4,48.4,30.11,WSW,256,3.0,4.0,80,0.00,,,0.00,Wunderground v.1.15,2013-03-14 19:48:00,
2013-03-14 12:54:00,54.3,48.3,30.11,West,273,2.0,5.0,80,0.00,,,0.00,Wunderground v.1.15,2013-03-14 19:54:00,
2013-03-14 12:59:00,54.2,48.2,30.11,West,265,2.0,5.0,80,0.00,,,0.00,Wunderground v.1.15,2013-03-14 19:59:00,
2013-03-14 13:05:00,54.2,48.2,30.12,WSW,238,2.0,5.0,80,0.00,,,0.00,Wunderground v.1.15,2013-03-14 20:05:00,
2013-03-14 13:11:00,54.1,48.1,30.12,SW,215,3.0,5.0,80,0.00,,,0.00,Wunderground v.1.15,2013-03-14 20:11:00,
2013-03-14 13:17:00,53.7,47.7,30.12,SW,229,3.0,5.0,80,0.00,,,0.00,Wunderground v.1.15,2013-03-14 20:17:00,
2013-03-14 13:22:00,53.5,47.5,30.12,SW,223,2.0,5.0,80,0.00,,,0.00,Wunderground v.1.15,2013-03-14 20:22:00,
2013-03-14 13:27:00,53.2,47.5,30.11,NW,304,3.0,5.0,81,0.00,,,0.00,Wunderground v.1.15,2013-03-14 20:27:00,
2013-03-14 13:33:00,53.4,47.7,30.11,WNW,301,3.0,5.0,81,0.00,,,0.00,Wunderground v.1.15,2013-03-14 20:33:00,
2013-03-14 13:39:00,53.6,47.6,30.11,NW,308,3.0,5.0,80,0.00,,,0.00,Wunderground v.1.15,2013-03-14 20:39:00,
2013-03-14 13:45:00,53.9,47.9,30.11,NW,306,2.0,5.0,80,0.00,,,0.00,Wunderground v.1.15,2013-03-14 20:45:00,
2013-03-14 13:50:00,53.9,47.9,30.11,NW,311,2.0,5.0,80,0.00,,,0.00,Wunderground v.1.15,2013-03-14 20:50:00,
2013-03-14 13:56:00,53.9,47.9,30.11,West,265,2.0,5.0,80,0.00,,,0.00,Wunderground v.1.15,2013-03-14 20:56:00,
2013-03-14 14:01:00,53.9,47.9,30.11,WSW,244,2.0,3.0,80,0.00,,,0.00,Wunderground v.1.15,2013-03-14 21:01:00,
2013-03-14 14:07:00,54.0,47.6,30.12,SW,218,2.0,5.0,79,0.00,,,0.00,Wunderground v.1.15,2013-03-14 21:07:00,
2013-03-14 14:12:00,54.1,47.4,30.11,West,268,2.0,5.0,78,0.00,,,0.00,Wunderground v.1.15,2013-03-14 21:12:00,
2013-03-14 14:17:00,54.2,47.1,30.11,SW,235,2.0,6.0,77,0.00,,,0.00,Wunderground v.1.15,2013-03-14 21:17:00,
2013-03-14 14:23:00,54.5,47.4,30.11,SW,225,2.0,5.0,77,0.00,,,0.00,Wunderground v.1.15,2013-03-14 21:23:00,
2013-03-14 14:28:00,54.7,47.6,30.11,WNW,285,1.0,5.0,77,0.00,,,0.00,Wunderground v.1.15,2013-03-14 21:28:00,
2013-03-14 14:34:00,54.8,47.7,30.12,WSW,244,1.0,5.0,77,0.00,,,0.00,Wunderground v.1.15,2013-03-14 21:34:00,
2013-03-14 14:39:00,54.8,47.4,30.12,WNW,299,2.0,5.0,76,0.00,,,0.00,Wunderground v.1.15,2013-03-14 21:39:00,
2013-03-14 14:45:00,54.8,47.7,30.12,WNW,299,1.0,5.0,77,0.00,,,0.00,Wunderground v.1.15,2013-03-14 21:45:00,
2013-03-14 14:51:00,54.8,47.4,30.12,WNW,299,1.0,2.0,76,0.00,,,0.00,Wunderground v.1.15,2013-03-14 21:51:00,
2013-03-14 14:57:00,54.7,47.6,30.12,WNW,299,1.0,5.0,77,0.00,,,0.00,Wunderground v.1.15,2013-03-14 21:57:00,
2013-03-14 15:02:00,54.6,46.8,30.11,WNW,299,1.0,5.0,75,0.00,,,0.00,Wunderground v.1.15,2013-03-14 22:02:00,
2013-03-14 15:08:00,54.4,46.6,30.12,NW,306,1.0,5.0,75,0.00,,,0.00,Wunderground v.1.15,2013-03-14 22:08:00,
2013-03-14 15:14:00,54.1,46.7,30.12,WNW,294,2.0,5.0,76,0.00,,,0.00,Wunderground v.1.15,2013-03-14 22:14:00,
2013-03-14 15:20:00,54.0,46.6,30.12,West,281,1.0,1.0,76,0.00,,,0.00,Wunderground v.1.15,2013-03-14 22:20:00,
2013-03-14 15:27:00,53.8,46.8,30.11,WNW,287,1.0,5.0,77,0.00,,,0.00,Wunderground v.1.15,2013-03-14 22:27:00,
2013-03-14 15:32:00,53.6,46.6,30.11,SW,235,1.0,5.0,77,0.00,,,0.00,Wunderground v.1.15,2013-03-14 22:32:00,
2013-03-14 15:38:00,53.5,46.8,30.11,SW,226,1.0,5.0,78,0.00,,,0.00,Wunderground v.1.15,2013-03-14 22:38:00,
2013-03-14 15:43:00,53.4,46.7,30.12,West,280,1.0,5.0,78,0.00,,,0.00,Wunderground v.1.15,2013-03-14 22:43:00,
2013-03-14 15:49:00,53.3,46.6,30.12,WSW,244,1.0,5.0,78,0.00,,,0.00,Wunderground v.1.15,2013-03-14 22:49:00,
2013-03-14 15:55:00,53.3,46.6,30.12,West,271,1.0,5.0,78,0.00,,,0.00,Wunderground v.1.15,2013-03-14 22:55:00,
2013-03-14 16:00:00,53.3,46.3,30.12,West,270,1.0,1.0,77,0.00,,,0.00,Wunderground v.1.15,2013-03-14 23:00:00,
2013-03-14 16:06:00,53.3,45.9,30.12,WSW,238,1.0,5.0,76,0.00,,,0.00,Wunderground v.1.15,2013-03-14 23:06:00,
2013-03-14 16:11:00,53.2,45.5,30.12,WSW,253,1.0,5.0,75,0.00,,,0.00,Wunderground v.1.15,2013-03-14 23:11:00,
2013-03-14 16:17:00,53.3,45.6,30.12,WSW,253,0.0,5.0,75,0.00,,,0.00,Wunderground v.1.15,2013-03-14 23:17:00,
2013-03-14 16:22:00,53.4,45.7,30.12,WSW,253,0.0,5.0,75,0.00,,,0.00,Wunderground v.1.15,2013-03-14 23:22:00,
2013-03-14 16:27:00,53.5,45.8,30.12,SW,235,0.0,5.0,75,0.00,,,0.00,Wunderground v.1.15,2013-03-14 23:27:00,
2013-03-14 16:33:00,53.6,45.5,30.13,SW,235,1.0,5.0,74,0.00,,,0.00,Wunderground v.1.15,2013-03-14 23:33:00,
2013-03-14 16:39:00,53.6,45.5,30.13,WSW,238,1.0,5.0,74,0.00,,,0.00,Wunderground v.1.15,2013-03-14 23:39:00,
2013-03-14 16:45:00,53.6,45.5,30.13,WSW,238,1.0,5.0,74,0.00,,,0.00,Wunderground v.1.15,2013-03-14 23:45:00,
2013-03-14 16:51:00,53.6,45.5,30.13,WSW,238,0.0,5.0,74,0.00,,,0.00,Wunderground v.1.15,2013-03-14 23:51:00,
2013-03-14 16:56:00,53.5,45.1,30.13,WSW,238,0.0,5.0,73,0.00,,,0.00,Wunderground v.1.15,2013-03-14 23:56:00,
2013-03-14 17:01:00,53.5,45.4,30.13,WSW,238,0.0,5.0,74,0.00,,,0.00,Wunderground v.1.15,2013-03-15 00:01:00,
2013-03-14 17:07:00,53.6,45.9,30.13,WSW,238,0.0,5.0,75,0.00,,,0.00,Wunderground v.1.15,2013-03-15 00:07:00,
2013-03-14 17:12:00,53.6,46.2,30.13,WSW,238,0.0,5.0,76,0.00,,,0.00,Wunderground v.1.15,2013-03-15 00:12:00,
2013-03-14 17:18:00,53.6,45.5,30.12,WSW,239,0.0,5.0,74,0.00,,,0.00,Wunderground v.1.15,2013-03-15 00:18:00,
2013-03-14 17:23:00,53.5,45.4,30.12,WNW,294,1.0,5.0,74,0.00,,,0.00,Wunderground v.1.15,2013-03-15 00:23:00,
2013-03-14 17:29:00,53.5,45.4,30.12,WNW,290,1.0,5.0,74,0.00,,,0.00,Wunderground v.1.15,2013-03-15 00:29:00,
2013-03-14 17:35:00,53.4,46.0,30.12,WNW,290,0.0,5.0,76,0.00,,,0.00,Wunderground v.1.15,2013-03-15 00:35:00,
2013-03-14 17:42:00,53.2,45.5,30.11,WNW,290,0.0,5.0,75,0.00,,,0.00,Wunderground v.1.15,2013-03-15 00:42:00,
2013-03-14 17:48:00,52.9,45.9,30.11,WNW,290,0.0,5.0,77,0.00,,,0.00,Wunderground v.1.15,2013-03-15 00:48:00,
2013-03-14 17:54:00,52.8,45.8,30.12,WNW,290,0.0,5.0,77,0.00,,,0.00,Wunderground v.1.15,2013-03-15 00:54:00,
2013-03-14 17:59:00,52.8,46.5,30.12,WNW,290,0.0,5.0,79,0.00,,,0.00,Wunderground v.1.15,2013-03-15 00:59:00,
2013-03-14 18:05:00,52.8,45.8,30.12,WNW,290,0.0,5.0,77,0.00,,,0.00,Wunderground v.1.15,2013-03-15 01:05:00,
2013-03-14 18:11:00,52.8,46.5,30.13,WNW,290,0.0,0.0,79,0.00,,,0.00,Wunderground v.1.15,2013-03-15 01:11:00,
2013-03-14 18:17:00,52.7,45.7,30.13,WNW,290,0.0,0.0,77,0.00,,,0.00,Wunderground v.1.15,2013-03-15 01:17:00,
2013-03-14 18:22:00,52.7,46.4,30.13,WNW,290,0.0,1.0,79,0.00,,,0.00,Wunderground v.1.15,2013-03-15 01:22:00,
2013-03-14 18:28:00,52.6,46.9,30.13,WNW,290,0.0,1.0,81,0.00,,,0.00,Wunderground v.1.15,2013-03-15 01:28:00,
2013-03-14 18:34:00,52.5,47.2,30.13,WNW,290,0.0,0.0,82,0.00,,,0.00,Wunderground v.1.15,2013-03-15 01:34:00,
2013-03-14 18:40:00,52.4,47.1,30.13,WNW,290,0.0,0.0,82,0.00,,,0.00,Wunderground v.1.15,2013-03-15 01:40:00,
2013-03-14 18:46:00,52.3,47.0,30.13,WNW,290,0.0,0.0,82,0.00,,,0.00,Wunderground v.1.15,2013-03-15 01:46:00,
2013-03-14 18:51:00,52.0,47.0,30.13,WNW,290,0.0,0.0,83,0.00,,,0.00,Wunderground v.1.15,2013-03-15 01:51:00,
2013-03-14 18:57:00,51.6,46.9,30.12,WNW,290,0.0,0.0,84,0.00,,,0.01,Wunderground v.1.15,2013-03-15 01:57:00,
2013-03-14 19:02:00,51.3,46.9,30.13,South,172,1.0,6.0,85,0.14,,,0.02,Wunderground v.1.15,2013-03-15 02:02:00,
2013-03-14 19:08:00,51.0,46.3,30.13,South,172,1.0,6.0,84,0.06,,,0.02,Wunderground v.1.15,2013-03-15 02:08:00,
2013-03-14 19:13:00,50.9,46.2,30.12,South,171,0.0,2.0,84,0.04,,,0.02,Wunderground v.1.15,2013-03-15 02:13:00,
2013-03-14 19:19:00,50.8,45.8,30.12,SSE,150,1.0,2.0,83,0.00,,,0.02,Wunderground v.1.15,2013-03-15 02:19:00,
2013-03-14 19:24:00,50.8,45.8,30.12,SE,144,1.0,4.0,83,0.00,,,0.02,Wunderground v.1.15,2013-03-15 02:24:00,
2013-03-14 19:30:00,50.8,46.1,30.12,SSE,161,1.0,1.0,84,0.00,,,0.02,Wunderground v.1.15,2013-03-15 02:30:00,
2013-03-14 19:36:00,50.7,46.4,30.13,SSE,161,0.0,2.0,85,0.00,,,0.02,Wunderground v.1.15,2013-03-15 02:36:00,
2013-03-14 19:42:00,50.7,47.0,30.13,SSE,161,0.0,2.0,87,0.00,,,0.02,Wunderground v.1.15,2013-03-15 02:42:00,
2013-03-14 19:47:00,50.6,46.9,30.13,SSE,161,0.0,2.0,87,0.00,,,0.02,Wunderground v.1.15,2013-03-15 02:47:00,
2013-03-14 19:52:00,50.4,47.0,30.13,SSE,162,0.0,2.0,88,0.00,,,0.02,Wunderground v.1.15,2013-03-15 02:52:00,
2013-03-14 19:58:00,50.3,47.2,30.13,SSE,162,0.0,2.0,89,0.00,,,0.03,Wunderground v.1.15,2013-03-15 02:58:00,
2013-03-14 20:04:00,50.1,47.0,30.13,SSE,162,1.0,2.0,89,0.00,,,0.03,Wunderground v.1.15,2013-03-15 03:04:00,
2013-03-14 20:10:00,49.8,47.0,30.13,SSE,162,0.0,2.0,90,0.00,,,0.03,Wunderground v.1.15,2013-03-15 03:10:00,